Welkom op de website van Weerstation Hoek van Holland.

Onweer radar Meer informatie blitzortung!


Regen radar Meer informatie rain snow radar



METAR rapporten vliegvelden

   
EHRD - Rotterdam International Airport, NL
Afstand tot: Oost 31 km
Gewijzigd: 15-11-2019 02:55
Gedeeltelijk bewolkt  
Gedeeltelijk bewolkt  
   Wind: NO 14.8 km/h
Wind: NO 14.8 km/h
Temperatuur: 4°C
Voelt als: 1°C
Dauwpunt: 3°C
Vochtigheid: 93%
Barometer: 1002 hPa
Bewolking: Partly Cloudy
Zicht: meer dan 10 km
Bewolking: Gedeeltelijk bewolkt ft
EHRD 150155Z AUTO 05008KT 010V070 9999 NSC 04/03 Q1002 NOSIG
EHAM - Amsterdam Schiphol, NL
Afstand tot: Noord 17 km
Gewijzigd: 15-11-2019 02:55
Helder  
Helder  
   Wind: NO 16.7 km/h
Wind: NO 16.7 km/h
Temperatuur: 5°C
Voelt als: 2°C
Dauwpunt: 3°C
Vochtigheid: 87%
Barometer: 1003 hPa
Zicht: meer dan 10 km
Bewolking: Helder ft
EHAM 150155Z 05009KT CAVOK 05/03 Q1003 NOSIG
EBAW - Antwerpen/Deurne, B
Afstand tot: Zuid 138 km
Gewijzigd: 15-11-2019 02:50
Helder  
Helder  
   Wind: Noorden 11.1 km/h
Wind: Noorden 11.1 km/h
Temperatuur: 5°C
Voelt als: 2°C
Dauwpunt: 3°C
Vochtigheid: 87%
Barometer: 1001 hPa
Zicht: meer dan 10 km
Bewolking: Helder ft
EBAW 150150Z AUTO 01006KT CAVOK 05/03 Q1001
EHEH - Eindhoven, NL
Afstand tot: OZO 140 km
Gewijzigd: 15-11-2019 02:55
Bewolking  
Bewolking  
   Wind: NNO 14.8 km/h
Wind: NNO 14.8 km/h
Temperatuur: 3°C
Voelt als: -1°C
Dauwpunt: 2°C
Vochtigheid: 93%
Barometer: 1001 hPa
Bewolking: Overcast
Zicht: meer dan 10 km
Bewolking: Grotendeels bewolkt 14000 ft,
Bewolking 22000 ft
EHEH 150155Z AUTO 03008KT 010V070 9999 BKN140 OVC220 03/02 Q1001 BLU
  

Script ontwikkeld door  Saratoga-weather.org Aangepast voor de template door  Weerstation Leuven

Apparatuur in gebruik:

Weerstation
Davis VP2

Weerprogramma
Meteobridge

Weercomputer
meteobridge met meteostick

Webleverancier
Strato

Davis VP2

Meteobridge

meteobridge met meteostick

Strato